METAR Data

Data at: 1124 UTC 21 Apr 2021

METAR for:CYHZ (Halifax/Stanfield In, NS, CN)
Text:CYHZ 211100Z 20005KT 15SM SCT060 BKN120 BKN260 08/04 A2993 RMK SC3AC1CI2 SLP140
Temperature: 8.0°C ( 46°F)
Dewpoint: 4.0°C ( 39°F) [RH = 76%]
Pressure (altimeter):29.93 inches Hg (1013.6 mb) [Sea level pressure: 1014.0 mb]
Winds:from the SSW (200 degrees) at 6 MPH (5 knots; 2.6 m/s)
Visibility: 15 sm ( 24 km)
Ceiling:12000 feet AGL
Clouds: scattered clouds at 6000 feet AGL, broken clouds at 12000 feet AGL, broken clouds at 26000 feet AGL